sensor_id;sensor_type;location;lat;lon;timestamp;P1;durP1;ratioP1;P2;durP2;ratioP2
24008;SDS011;12217;50.792;4.372;2023-03-01T00:01:15;14.30;;;12.77;;
24008;SDS011;12217;50.792;4.372;2023-03-01T00:03:42;14.93;;;13.32;;
24008;SDS011;12217;50.792;4.372;2023-03-01T00:06:10;14.10;;;12.52;;
24008;SDS011;12217;50.792;4.372;2023-03-01T00:08:35;16.60;;;12.68;;
24008;SDS011;12217;50.792;4.372;2023-03-01T00:13:35;15.05;;;13.10;;
24008;SDS011;12217;50.792;4.372;2023-03-01T00:16:05;14.02;;;12.60;;
24008;SDS011;12217;50.792;4.372;2023-03-01T00:18:32;14.77;;;13.20;;
24008;SDS011;12217;50.792;4.372;2023-03-01T00:20:58;13.60;;;12.30;;
24008;SDS011;12217;50.792;4.372;2023-03-01T00:23:24;17.02;;;13.40;;
24008;SDS011;12217;50.792;4.372;2023-03-01T00:25:50;15.23;;;13.07;;
24008;SDS011;12217;50.792;4.372;2023-03-01T00:28:16;15.27;;;13.27;;
24008;SDS011;12217;50.792;4.372;2023-03-01T00:30:42;14.85;;;12.77;;
24008;SDS011;12217;50.792;4.372;2023-03-01T00:33:08;14.40;;;12.80;;
24008;SDS011;12217;50.792;4.372;2023-03-01T00:35:34;14.45;;;12.68;;
24008;SDS011;12217;50.792;4.372;2023-03-01T00:37:59;15.55;;;13.13;;
24008;SDS011;12217;50.792;4.372;2023-03-01T00:40:26;14.63;;;12.40;;
24008;SDS011;12217;50.792;4.372;2023-03-01T00:42:53;15.05;;;13.23;;
24008;SDS011;12217;50.792;4.372;2023-03-01T00:45:21;15.15;;;12.93;;
24008;SDS011;12217;50.792;4.372;2023-03-01T00:47:47;14.60;;;13.00;;
24008;SDS011;12217;50.792;4.372;2023-03-01T00:50:14;15.23;;;13.30;;
24008;SDS011;12217;50.792;4.372;2023-03-01T00:52:40;18.92;;;13.55;;
24008;SDS011;12217;50.792;4.372;2023-03-01T00:55:05;14.63;;;12.80;;
24008;SDS011;12217;50.792;4.372;2023-03-01T00:57:32;15.15;;;13.50;;
24008;SDS011;12217;50.792;4.372;2023-03-01T00:59:58;15.52;;;12.85;;
24008;SDS011;12217;50.792;4.372;2023-03-01T01:02:23;15.90;;;12.85;;
24008;SDS011;12217;50.792;4.372;2023-03-01T01:04:49;14.55;;;13.18;;
24008;SDS011;12217;50.792;4.372;2023-03-01T01:07:15;16.40;;;13.38;;
24008;SDS011;12217;50.792;4.372;2023-03-01T01:09:40;13.70;;;12.30;;
24008;SDS011;12217;50.792;4.372;2023-03-01T01:12:06;15.55;;;12.93;;
24008;SDS011;12217;50.792;4.372;2023-03-01T01:14:32;15.50;;;12.63;;
24008;SDS011;12217;50.792;4.372;2023-03-01T01:16:59;13.90;;;12.40;;
24008;SDS011;12217;50.792;4.372;2023-03-01T01:19:24;13.35;;;12.02;;
24008;SDS011;12217;50.792;4.372;2023-03-01T01:21:50;14.00;;;12.50;;
24008;SDS011;12217;50.792;4.372;2023-03-01T01:24:17;13.93;;;12.45;;
24008;SDS011;12217;50.792;4.372;2023-03-01T01:26:42;14.80;;;12.73;;
24008;SDS011;12217;50.792;4.372;2023-03-01T01:29:09;14.00;;;12.60;;
24008;SDS011;12217;50.792;4.372;2023-03-01T01:31:35;15.90;;;12.50;;
24008;SDS011;12217;50.792;4.372;2023-03-01T01:34:02;15.18;;;12.38;;
24008;SDS011;12217;50.792;4.372;2023-03-01T01:36:29;14.45;;;12.95;;
24008;SDS011;12217;50.792;4.372;2023-03-01T01:38:55;13.77;;;12.45;;
24008;SDS011;12217;50.792;4.372;2023-03-01T01:41:21;13.52;;;12.13;;
24008;SDS011;12217;50.792;4.372;2023-03-01T01:44:33;13.73;;;12.02;;
24008;SDS011;12217;50.792;4.372;2023-03-01T01:46:37;14.82;;;12.65;;
24008;SDS011;12217;50.792;4.372;2023-03-01T01:49:09;14.45;;;12.55;;
24008;SDS011;12217;50.792;4.372;2023-03-01T01:51:44;13.45;;;12.05;;
24008;SDS011;12217;50.792;4.372;2023-03-01T01:54:17;13.82;;;12.43;;
24008;SDS011;12217;50.792;4.372;2023-03-01T01:56:49;14.10;;;12.60;;
24008;SDS011;12217;50.792;4.372;2023-03-01T01:59:23;14.45;;;12.60;;
24008;SDS011;12217;50.792;4.372;2023-03-01T02:01:53;15.63;;;12.57;;
24008;SDS011;12217;50.792;4.372;2023-03-01T02:04:20;14.60;;;12.20;;
24008;SDS011;12217;50.792;4.372;2023-03-01T02:06:48;13.77;;;11.95;;
24008;SDS011;12217;50.792;4.372;2023-03-01T02:09:20;13.57;;;11.98;;
24008;SDS011;12217;50.792;4.372;2023-03-01T02:11:47;13.98;;;12.20;;
24008;SDS011;12217;50.792;4.372;2023-03-01T02:14:14;13.50;;;12.10;;
24008;SDS011;12217;50.792;4.372;2023-03-01T02:16:40;13.15;;;11.85;;
24008;SDS011;12217;50.792;4.372;2023-03-01T02:19:07;14.10;;;12.60;;
24008;SDS011;12217;50.792;4.372;2023-03-01T02:21:59;13.98;;;12.45;;
24008;SDS011;12217;50.792;4.372;2023-03-01T02:24:57;13.27;;;11.98;;
24008;SDS011;12217;50.792;4.372;2023-03-01T02:27:37;14.50;;;12.77;;
24008;SDS011;12217;50.792;4.372;2023-03-01T02:30:08;13.77;;;12.38;;
24008;SDS011;12217;50.792;4.372;2023-03-01T02:32:37;14.38;;;12.45;;
24008;SDS011;12217;50.792;4.372;2023-03-01T02:35:06;13.38;;;11.93;;
24008;SDS011;12217;50.792;4.372;2023-03-01T02:37:36;13.20;;;12.00;;
24008;SDS011;12217;50.792;4.372;2023-03-01T02:40:05;14.48;;;12.93;;
24008;SDS011;12217;50.792;4.372;2023-03-01T02:42:37;16.23;;;12.88;;
24008;SDS011;12217;50.792;4.372;2023-03-01T02:45:10;15.30;;;12.90;;
24008;SDS011;12217;50.792;4.372;2023-03-01T02:47:36;13.75;;;12.30;;
24008;SDS011;12217;50.792;4.372;2023-03-01T02:50:01;15.93;;;13.50;;
24008;SDS011;12217;50.792;4.372;2023-03-01T02:57:30;14.75;;;12.82;;
24008;SDS011;12217;50.792;4.372;2023-03-01T02:59:57;15.88;;;13.20;;
24008;SDS011;12217;50.792;4.372;2023-03-01T03:02:31;15.00;;;13.50;;
24008;SDS011;12217;50.792;4.372;2023-03-01T03:05:04;15.02;;;13.20;;
24008;SDS011;12217;50.792;4.372;2023-03-01T03:07:33;15.80;;;13.38;;
24008;SDS011;12217;50.792;4.372;2023-03-01T03:10:00;15.15;;;13.18;;
24008;SDS011;12217;50.792;4.372;2023-03-01T03:12:27;15.95;;;13.32;;
24008;SDS011;12217;50.792;4.372;2023-03-01T03:14:52;15.15;;;12.65;;
24008;SDS011;12217;50.792;4.372;2023-03-01T03:17:18;14.80;;;13.15;;
24008;SDS011;12217;50.792;4.372;2023-03-01T03:19:43;14.90;;;13.40;;
24008;SDS011;12217;50.792;4.372;2023-03-01T03:22:10;14.38;;;12.88;;
24008;SDS011;12217;50.792;4.372;2023-03-01T03:24:37;14.95;;;13.30;;
24008;SDS011;12217;50.792;4.372;2023-03-01T03:27:06;13.95;;;12.32;;
24008;SDS011;12217;50.792;4.372;2023-03-01T03:29:32;16.20;;;13.55;;
24008;SDS011;12217;50.792;4.372;2023-03-01T03:31:58;14.63;;;12.65;;
24008;SDS011;12217;50.792;4.372;2023-03-01T03:34:23;18.83;;;13.05;;
24008;SDS011;12217;50.792;4.372;2023-03-01T03:36:55;16.45;;;13.15;;
24008;SDS011;12217;50.792;4.372;2023-03-01T03:39:22;15.95;;;13.00;;
24008;SDS011;12217;50.792;4.372;2023-03-01T03:41:48;16.33;;;12.75;;
24008;SDS011;12217;50.792;4.372;2023-03-01T03:44:14;14.55;;;13.05;;
24008;SDS011;12217;50.792;4.372;2023-03-01T03:46:39;13.98;;;12.45;;
24008;SDS011;12217;50.792;4.372;2023-03-01T03:49:05;14.70;;;13.20;;
24008;SDS011;12217;50.792;4.372;2023-03-01T03:51:30;14.98;;;13.38;;
24008;SDS011;12217;50.792;4.372;2023-03-01T03:53:56;15.07;;;12.68;;
24008;SDS011;12217;50.792;4.372;2023-03-01T03:56:21;18.25;;;13.40;;
24008;SDS011;12217;50.792;4.372;2023-03-01T03:58:50;15.60;;;12.90;;
24008;SDS011;12217;50.792;4.372;2023-03-01T04:01:17;19.27;;;13.70;;
24008;SDS011;12217;50.792;4.372;2023-03-01T04:03:42;15.23;;;12.80;;
24008;SDS011;12217;50.792;4.372;2023-03-01T04:06:11;14.85;;;13.35;;
24008;SDS011;12217;50.792;4.372;2023-03-01T04:08:38;14.20;;;12.80;;
24008;SDS011;12217;50.792;4.372;2023-03-01T04:11:04;17.92;;;13.88;;
24008;SDS011;12217;50.792;4.372;2023-03-01T04:13:48;15.18;;;13.27;;
24008;SDS011;12217;50.792;4.372;2023-03-01T04:16:15;16.65;;;13.30;;
24008;SDS011;12217;50.792;4.372;2023-03-01T04:18:41;15.93;;;13.60;;
24008;SDS011;12217;50.792;4.372;2023-03-01T04:21:07;15.32;;;13.40;;
24008;SDS011;12217;50.792;4.372;2023-03-01T04:23:32;17.70;;;14.88;;
24008;SDS011;12217;50.792;4.372;2023-03-01T04:25:58;16.88;;;13.88;;
24008;SDS011;12217;50.792;4.372;2023-03-01T04:28:29;15.77;;;14.18;;
24008;SDS011;12217;50.792;4.372;2023-03-01T04:31:01;15.10;;;13.55;;
24008;SDS011;12217;50.792;4.372;2023-03-01T04:33:38;13.82;;;12.43;;
24008;SDS011;12217;50.792;4.372;2023-03-01T04:36:05;16.50;;;13.77;;
24008;SDS011;12217;50.792;4.372;2023-03-01T04:38:33;15.55;;;13.77;;
24008;SDS011;12217;50.792;4.372;2023-03-01T04:41:01;15.45;;;13.68;;
24008;SDS011;12217;50.792;4.372;2023-03-01T04:43:28;15.10;;;13.45;;
24008;SDS011;12217;50.792;4.372;2023-03-01T04:45:54;15.80;;;13.57;;
24008;SDS011;12217;50.792;4.372;2023-03-01T04:48:19;16.98;;;13.80;;
24008;SDS011;12217;50.792;4.372;2023-03-01T04:50:45;17.13;;;14.43;;
24008;SDS011;12217;50.792;4.372;2023-03-01T04:53:10;15.70;;;14.07;;
24008;SDS011;12217;50.792;4.372;2023-03-01T04:55:36;16.27;;;13.30;;
24008;SDS011;12217;50.792;4.372;2023-03-01T04:58:01;14.52;;;13.13;;
24008;SDS011;12217;50.792;4.372;2023-03-01T05:00:27;14.68;;;13.05;;
24008;SDS011;12217;50.792;4.372;2023-03-01T05:05:21;19.45;;;14.82;;
24008;SDS011;12217;50.792;4.372;2023-03-01T05:08:01;16.02;;;13.77;;
24008;SDS011;12217;50.792;4.372;2023-03-01T05:10:30;16.05;;;14.35;;
24008;SDS011;12217;50.792;4.372;2023-03-01T05:12:57;17.20;;;14.10;;
24008;SDS011;12217;50.792;4.372;2023-03-01T05:15:24;16.67;;;13.57;;
24008;SDS011;12217;50.792;4.372;2023-03-01T05:17:52;17.40;;;14.55;;
24008;SDS011;12217;50.792;4.372;2023-03-01T05:20:19;18.45;;;13.45;;
24008;SDS011;12217;50.792;4.372;2023-03-01T05:22:49;15.50;;;13.88;;
24008;SDS011;12217;50.792;4.372;2023-03-01T05:25:15;15.93;;;14.15;;
24008;SDS011;12217;50.792;4.372;2023-03-01T05:27:42;16.70;;;14.05;;
24008;SDS011;12217;50.792;4.372;2023-03-01T05:30:08;15.15;;;13.48;;
24008;SDS011;12217;50.792;4.372;2023-03-01T05:32:41;17.88;;;14.93;;
24008;SDS011;12217;50.792;4.372;2023-03-01T05:35:08;16.60;;;14.00;;
24008;SDS011;12217;50.792;4.372;2023-03-01T05:37:38;15.20;;;13.60;;
24008;SDS011;12217;50.792;4.372;2023-03-01T05:40:05;16.50;;;13.70;;
24008;SDS011;12217;50.792;4.372;2023-03-01T05:42:32;17.00;;;13.88;;
24008;SDS011;12217;50.792;4.372;2023-03-01T05:44:58;15.77;;;14.10;;
24008;SDS011;12217;50.792;4.372;2023-03-01T05:47:23;15.18;;;13.68;;
24008;SDS011;12217;50.792;4.372;2023-03-01T05:49:49;18.02;;;14.43;;
24008;SDS011;12217;50.792;4.372;2023-03-01T05:52:15;16.67;;;14.10;;
24008;SDS011;12217;50.792;4.372;2023-03-01T05:54:40;18.70;;;14.32;;
24008;SDS011;12217;50.792;4.372;2023-03-01T05:57:06;18.60;;;14.77;;
24008;SDS011;12217;50.792;4.372;2023-03-01T05:59:31;15.38;;;13.77;;
24008;SDS011;12217;50.792;4.372;2023-03-01T06:01:57;17.38;;;13.90;;
24008;SDS011;12217;50.792;4.372;2023-03-01T06:04:23;16.02;;;13.75;;
24008;SDS011;12217;50.792;4.372;2023-03-01T06:06:48;15.82;;;14.02;;
24008;SDS011;12217;50.792;4.372;2023-03-01T06:09:14;16.42;;;14.73;;
24008;SDS011;12217;50.792;4.372;2023-03-01T06:11:40;16.23;;;13.88;;
24008;SDS011;12217;50.792;4.372;2023-03-01T06:14:07;15.50;;;13.90;;
24008;SDS011;12217;50.792;4.372;2023-03-01T06:16:33;15.48;;;13.88;;
24008;SDS011;12217;50.792;4.372;2023-03-01T06:18:59;18.08;;;14.38;;
24008;SDS011;12217;50.792;4.372;2023-03-01T06:21:24;17.00;;;14.18;;
24008;SDS011;12217;50.792;4.372;2023-03-01T06:23:50;17.23;;;14.68;;
24008;SDS011;12217;50.792;4.372;2023-03-01T06:26:16;15.77;;;14.15;;
24008;SDS011;12217;50.792;4.372;2023-03-01T06:28:42;16.23;;;14.52;;
24008;SDS011;12217;50.792;4.372;2023-03-01T06:31:10;17.02;;;15.02;;
24008;SDS011;12217;50.792;4.372;2023-03-01T06:33:36;18.30;;;14.95;;
24008;SDS011;12217;50.792;4.372;2023-03-01T06:36:02;16.42;;;14.27;;
24008;SDS011;12217;50.792;4.372;2023-03-01T06:38:28;15.23;;;13.68;;
24008;SDS011;12217;50.792;4.372;2023-03-01T06:40:54;19.10;;;15.32;;
24008;SDS011;12217;50.792;4.372;2023-03-01T06:43:21;16.85;;;14.60;;
24008;SDS011;12217;50.792;4.372;2023-03-01T06:45:47;17.27;;;15.00;;
24008;SDS011;12217;50.792;4.372;2023-03-01T06:48:13;19.42;;;14.75;;
24008;SDS011;12217;50.792;4.372;2023-03-01T06:50:38;17.17;;;15.38;;
24008;SDS011;12217;50.792;4.372;2023-03-01T06:53:04;16.27;;;14.50;;
24008;SDS011;12217;50.792;4.372;2023-03-01T06:55:30;18.48;;;15.27;;
24008;SDS011;12217;50.792;4.372;2023-03-01T06:57:57;17.60;;;14.82;;
24008;SDS011;12217;50.792;4.372;2023-03-01T07:00:24;17.63;;;14.45;;
24008;SDS011;12217;50.792;4.372;2023-03-01T07:02:51;18.90;;;14.30;;
24008;SDS011;12217;50.792;4.372;2023-03-01T07:05:17;16.55;;;14.52;;
24008;SDS011;12217;50.792;4.372;2023-03-01T07:07:43;16.55;;;14.70;;
24008;SDS011;12217;50.792;4.372;2023-03-01T07:10:09;18.83;;;15.27;;
24008;SDS011;12217;50.792;4.372;2023-03-01T07:12:36;19.60;;;14.38;;
24008;SDS011;12217;50.792;4.372;2023-03-01T07:15:02;16.85;;;15.05;;
24008;SDS011;12217;50.792;4.372;2023-03-01T07:17:29;17.60;;;14.95;;
24008;SDS011;12217;50.792;4.372;2023-03-01T07:19:55;18.20;;;14.77;;
24008;SDS011;12217;50.792;4.372;2023-03-01T07:22:21;16.27;;;14.60;;
24008;SDS011;12217;50.792;4.372;2023-03-01T07:24:47;19.27;;;15.25;;
24008;SDS011;12217;50.792;4.372;2023-03-01T07:27:12;18.20;;;14.70;;
24008;SDS011;12217;50.792;4.372;2023-03-01T07:29:38;21.13;;;14.90;;
24008;SDS011;12217;50.792;4.372;2023-03-01T07:32:04;17.92;;;14.77;;
24008;SDS011;12217;50.792;4.372;2023-03-01T07:34:30;20.35;;;16.38;;
24008;SDS011;12217;50.792;4.372;2023-03-01T07:36:56;20.55;;;16.05;;
24008;SDS011;12217;50.792;4.372;2023-03-01T07:39:22;17.95;;;14.52;;
24008;SDS011;12217;50.792;4.372;2023-03-01T07:41:49;17.92;;;16.02;;
24008;SDS011;12217;50.792;4.372;2023-03-01T07:44:15;17.20;;;14.10;;
24008;SDS011;12217;50.792;4.372;2023-03-01T07:46:42;16.10;;;14.40;;
24008;SDS011;12217;50.792;4.372;2023-03-01T07:49:08;16.88;;;15.00;;
24008;SDS011;12217;50.792;4.372;2023-03-01T07:51:33;17.95;;;15.95;;
24008;SDS011;12217;50.792;4.372;2023-03-01T07:53:59;18.45;;;15.25;;
24008;SDS011;12217;50.792;4.372;2023-03-01T07:56:25;17.52;;;15.65;;
24008;SDS011;12217;50.792;4.372;2023-03-01T07:58:50;18.65;;;14.98;;
24008;SDS011;12217;50.792;4.372;2023-03-01T08:01:17;16.80;;;14.98;;
24008;SDS011;12217;50.792;4.372;2023-03-01T08:03:44;20.13;;;15.52;;
24008;SDS011;12217;50.792;4.372;2023-03-01T08:06:10;18.30;;;14.60;;
24008;SDS011;12217;50.792;4.372;2023-03-01T08:08:37;20.38;;;14.65;;
24008;SDS011;12217;50.792;4.372;2023-03-01T08:11:03;16.88;;;15.07;;
24008;SDS011;12217;50.792;4.372;2023-03-01T08:13:31;18.15;;;16.20;;
24008;SDS011;12217;50.792;4.372;2023-03-01T08:16:04;18.15;;;14.57;;
24008;SDS011;12217;50.792;4.372;2023-03-01T08:18:31;18.60;;;14.85;;
24008;SDS011;12217;50.792;4.372;2023-03-01T08:21:03;17.45;;;14.90;;
24008;SDS011;12217;50.792;4.372;2023-03-01T08:23:30;20.77;;;17.33;;
24008;SDS011;12217;50.792;4.372;2023-03-01T08:26:03;17.80;;;14.57;;
24008;SDS011;12217;50.792;4.372;2023-03-01T08:28:31;16.20;;;14.25;;
24008;SDS011;12217;50.792;4.372;2023-03-01T08:30:56;18.85;;;15.18;;
24008;SDS011;12217;50.792;4.372;2023-03-01T08:33:22;16.63;;;14.18;;
24008;SDS011;12217;50.792;4.372;2023-03-01T08:35:47;18.98;;;14.05;;
24008;SDS011;12217;50.792;4.372;2023-03-01T08:38:14;18.35;;;14.40;;
24008;SDS011;12217;50.792;4.372;2023-03-01T08:40:39;18.23;;;14.90;;
24008;SDS011;12217;50.792;4.372;2023-03-01T08:43:05;19.30;;;15.10;;
24008;SDS011;12217;50.792;4.372;2023-03-01T08:45:31;19.67;;;14.10;;
24008;SDS011;12217;50.792;4.372;2023-03-01T08:47:56;15.68;;;13.82;;
24008;SDS011;12217;50.792;4.372;2023-03-01T08:50:22;15.93;;;14.15;;
24008;SDS011;12217;50.792;4.372;2023-03-01T08:52:49;16.30;;;13.60;;
24008;SDS011;12217;50.792;4.372;2023-03-01T08:55:15;15.93;;;14.23;;
24008;SDS011;12217;50.792;4.372;2023-03-01T08:57:42;16.17;;;14.10;;
24008;SDS011;12217;50.792;4.372;2023-03-01T09:00:08;18.42;;;14.38;;
24008;SDS011;12217;50.792;4.372;2023-03-01T09:02:36;15.80;;;13.60;;
24008;SDS011;12217;50.792;4.372;2023-03-01T09:05:02;17.83;;;14.23;;
24008;SDS011;12217;50.792;4.372;2023-03-01T09:07:28;19.73;;;14.05;;
24008;SDS011;12217;50.792;4.372;2023-03-01T09:09:53;16.55;;;14.82;;
24008;SDS011;12217;50.792;4.372;2023-03-01T09:12:20;17.52;;;15.20;;
24008;SDS011;12217;50.792;4.372;2023-03-01T09:14:45;17.73;;;15.07;;
24008;SDS011;12217;50.792;4.372;2023-03-01T09:17:11;17.45;;;14.40;;
24008;SDS011;12217;50.792;4.372;2023-03-01T09:19:37;17.85;;;14.82;;
24008;SDS011;12217;50.792;4.372;2023-03-01T09:22:03;16.52;;;14.38;;
24008;SDS011;12217;50.792;4.372;2023-03-01T09:24:29;15.60;;;13.98;;
24008;SDS011;12217;50.792;4.372;2023-03-01T09:26:55;20.95;;;14.48;;
24008;SDS011;12217;50.792;4.372;2023-03-01T09:29:21;16.52;;;13.77;;
24008;SDS011;12217;50.792;4.372;2023-03-01T09:31:47;20.80;;;15.07;;
24008;SDS011;12217;50.792;4.372;2023-03-01T09:34:13;18.20;;;15.10;;
24008;SDS011;12217;50.792;4.372;2023-03-01T09:36:47;16.40;;;13.75;;
24008;SDS011;12217;50.792;4.372;2023-03-01T09:39:13;17.92;;;14.77;;
24008;SDS011;12217;50.792;4.372;2023-03-01T09:47:27;18.98;;;14.25;;
24008;SDS011;12217;50.792;4.372;2023-03-01T09:52:43;16.70;;;14.57;;
24008;SDS011;12217;50.792;4.372;2023-03-01T09:56:13;19.08;;;14.98;;
24008;SDS011;12217;50.792;4.372;2023-03-01T10:00:57;18.30;;;14.70;;
24008;SDS011;12217;50.792;4.372;2023-03-01T10:03:32;18.15;;;15.18;;
24008;SDS011;12217;50.792;4.372;2023-03-01T10:11:20;18.27;;;15.93;;
24008;SDS011;12217;50.792;4.372;2023-03-01T10:19:02;19.38;;;15.05;;
24008;SDS011;12217;50.792;4.372;2023-03-01T10:21:30;19.15;;;15.70;;
24008;SDS011;12217;50.792;4.372;2023-03-01T10:24:04;19.88;;;16.15;;
24008;SDS011;12217;50.792;4.372;2023-03-01T10:26:43;18.73;;;15.48;;
24008;SDS011;12217;50.792;4.372;2023-03-01T10:29:16;20.30;;;15.68;;
24008;SDS011;12217;50.792;4.372;2023-03-01T10:34:28;17.73;;;14.85;;
24008;SDS011;12217;50.792;4.372;2023-03-01T10:36:56;17.13;;;15.15;;
24008;SDS011;12217;50.792;4.372;2023-03-01T10:39:26;17.90;;;16.00;;
24008;SDS011;12217;50.792;4.372;2023-03-01T10:44:41;18.90;;;15.57;;
24008;SDS011;12217;50.792;4.372;2023-03-01T10:47:12;18.20;;;15.20;;
24008;SDS011;12217;50.792;4.372;2023-03-01T10:49:51;16.83;;;14.68;;
24008;SDS011;12217;50.792;4.372;2023-03-01T10:52:23;17.05;;;15.02;;
24008;SDS011;12217;50.792;4.372;2023-03-01T10:55:02;17.35;;;14.98;;
24008;SDS011;12217;50.792;4.372;2023-03-01T10:57:46;18.92;;;15.27;;
24008;SDS011;12217;50.792;4.372;2023-03-01T11:00:22;17.70;;;14.90;;
24008;SDS011;12217;50.792;4.372;2023-03-01T11:05:35;17.95;;;15.52;;
24008;SDS011;12217;50.792;4.372;2023-03-01T11:08:01;20.35;;;15.48;;
24008;SDS011;12217;50.792;4.372;2023-03-01T11:10:29;23.50;;;14.82;;
24008;SDS011;12217;50.792;4.372;2023-03-01T11:13:05;15.25;;;13.02;;
24008;SDS011;12217;50.792;4.372;2023-03-01T11:15:42;14.60;;;13.02;;
24008;SDS011;12217;50.792;4.372;2023-03-01T11:18:23;14.90;;;13.30;;
24008;SDS011;12217;50.792;4.372;2023-03-01T11:20:48;14.77;;;13.20;;
24008;SDS011;12217;50.792;4.372;2023-03-01T11:23:18;14.70;;;13.02;;
24008;SDS011;12217;50.792;4.372;2023-03-01T11:25:50;13.73;;;12.32;;
24008;SDS011;12217;50.792;4.372;2023-03-01T11:28:23;15.35;;;12.55;;
24008;SDS011;12217;50.792;4.372;2023-03-01T11:30:57;13.80;;;12.40;;
24008;SDS011;12217;50.792;4.372;2023-03-01T11:33:38;15.82;;;11.60;;
24008;SDS011;12217;50.792;4.372;2023-03-01T11:36:35;12.65;;;11.45;;
24008;SDS011;12217;50.792;4.372;2023-03-01T11:39:31;12.40;;;11.20;;
24008;SDS011;12217;50.792;4.372;2023-03-01T11:42:01;14.18;;;12.75;;
24008;SDS011;12217;50.792;4.372;2023-03-01T11:44:35;13.55;;;12.15;;
24008;SDS011;12217;50.792;4.372;2023-03-01T11:50:01;13.25;;;11.57;;
24008;SDS011;12217;50.792;4.372;2023-03-01T11:58:23;12.10;;;11.00;;
24008;SDS011;12217;50.792;4.372;2023-03-01T12:01:24;12.40;;;11.20;;
24008;SDS011;12217;50.792;4.372;2023-03-01T12:03:59;12.45;;;11.15;;
24008;SDS011;12217;50.792;4.372;2023-03-01T12:34:40;11.93;;;10.73;;
24008;SDS011;12217;50.792;4.372;2023-03-01T12:51:04;10.93;;;9.80;;
24008;SDS011;12217;50.792;4.372;2023-03-01T12:53:41;11.10;;;10.00;;
24008;SDS011;12217;50.792;4.372;2023-03-01T12:56:13;11.65;;;10.50;;
24008;SDS011;12217;50.792;4.372;2023-03-01T13:01:42;11.48;;;10.23;;
24008;SDS011;12217;50.792;4.372;2023-03-01T13:07:41;10.90;;;9.73;;
24008;SDS011;12217;50.792;4.372;2023-03-01T13:10:17;11.50;;;10.25;;
24008;SDS011;12217;50.792;4.372;2023-03-01T13:15:43;11.30;;;10.18;;
24008;SDS011;12217;50.792;4.372;2023-03-01T13:18:49;11.32;;;10.20;;
24008;SDS011;12217;50.792;4.372;2023-03-01T13:20:56;11.05;;;9.65;;
24008;SDS011;12217;50.792;4.372;2023-03-01T13:23:29;12.07;;;10.88;;
24008;SDS011;12217;50.792;4.372;2023-03-01T13:31:55;12.50;;;10.30;;
24008;SDS011;12217;50.792;4.372;2023-03-01T13:33:52;10.50;;;9.50;;
24008;SDS011;12217;50.792;4.372;2023-03-01T13:37:03;12.48;;;10.15;;
24008;SDS011;12217;50.792;4.372;2023-03-01T13:39:18;14.57;;;10.68;;
24008;SDS011;12217;50.792;4.372;2023-03-01T13:42:25;11.25;;;10.15;;
24008;SDS011;12217;50.792;4.372;2023-03-01T13:44:57;11.13;;;9.73;;
24008;SDS011;12217;50.792;4.372;2023-03-01T13:47:24;11.27;;;10.15;;
24008;SDS011;12217;50.792;4.372;2023-03-01T13:50:00;12.52;;;9.73;;
24008;SDS011;12217;50.792;4.372;2023-03-01T13:54:56;11.70;;;10.50;;
24008;SDS011;12217;50.792;4.372;2023-03-01T13:57:24;11.50;;;10.30;;
24008;SDS011;12217;50.792;4.372;2023-03-01T13:59:54;11.40;;;10.30;;
24008;SDS011;12217;50.792;4.372;2023-03-01T14:02:20;11.57;;;10.35;;
24008;SDS011;12217;50.792;4.372;2023-03-01T14:04:55;10.90;;;9.90;;
24008;SDS011;12217;50.792;4.372;2023-03-01T14:07:22;10.98;;;9.88;;
24008;SDS011;12217;50.792;4.372;2023-03-01T14:09:52;11.25;;;9.73;;
24008;SDS011;12217;50.792;4.372;2023-03-01T14:14:52;11.43;;;9.80;;
24008;SDS011;12217;50.792;4.372;2023-03-01T14:20:23;11.30;;;10.10;;
24008;SDS011;12217;50.792;4.372;2023-03-01T14:22:54;11.30;;;9.95;;
24008;SDS011;12217;50.792;4.372;2023-03-01T14:27:54;11.82;;;10.65;;
24008;SDS011;12217;50.792;4.372;2023-03-01T14:30:58;11.00;;;9.60;;
24008;SDS011;12217;50.792;4.372;2023-03-01T14:33:27;12.25;;;10.32;;
24008;SDS011;12217;50.792;4.372;2023-03-01T14:35:55;11.68;;;10.55;;
24008;SDS011;12217;50.792;4.372;2023-03-01T14:38:21;12.38;;;10.52;;
24008;SDS011;12217;50.792;4.372;2023-03-01T14:40:49;11.50;;;10.40;;
24008;SDS011;12217;50.792;4.372;2023-03-01T14:45:48;12.63;;;10.77;;
24008;SDS011;12217;50.792;4.372;2023-03-01T14:48:15;12.38;;;10.55;;
24008;SDS011;12217;50.792;4.372;2023-03-01T14:50:41;11.55;;;10.45;;
24008;SDS011;12217;50.792;4.372;2023-03-01T14:53:13;11.20;;;10.10;;
24008;SDS011;12217;50.792;4.372;2023-03-01T14:55:46;12.43;;;11.18;;
24008;SDS011;12217;50.792;4.372;2023-03-01T14:58:21;12.20;;;10.73;;
24008;SDS011;12217;50.792;4.372;2023-03-01T15:00:56;12.05;;;10.50;;
24008;SDS011;12217;50.792;4.372;2023-03-01T15:03:25;13.65;;;10.95;;
24008;SDS011;12217;50.792;4.372;2023-03-01T15:06:02;11.93;;;10.55;;
24008;SDS011;12217;50.792;4.372;2023-03-01T15:08:30;11.70;;;10.48;;
24008;SDS011;12217;50.792;4.372;2023-03-01T15:11:00;12.02;;;9.95;;
24008;SDS011;12217;50.792;4.372;2023-03-01T15:13:30;11.27;;;10.07;;
24008;SDS011;12217;50.792;4.372;2023-03-01T15:16:10;12.27;;;11.02;;
24008;SDS011;12217;50.792;4.372;2023-03-01T15:18:48;12.30;;;11.07;;
24008;SDS011;12217;50.792;4.372;2023-03-01T15:21:23;11.50;;;10.40;;
24008;SDS011;12217;50.792;4.372;2023-03-01T15:23:56;11.07;;;10.05;;
24008;SDS011;12217;50.792;4.372;2023-03-01T15:26:31;11.73;;;10.52;;
24008;SDS011;12217;50.792;4.372;2023-03-01T15:29:02;13.40;;;11.02;;
24008;SDS011;12217;50.792;4.372;2023-03-01T15:31:32;10.63;;;9.63;;
24008;SDS011;12217;50.792;4.372;2023-03-01T15:34:08;13.48;;;12.05;;
24008;SDS011;12217;50.792;4.372;2023-03-01T15:39:27;13.38;;;10.65;;
24008;SDS011;12217;50.792;4.372;2023-03-01T15:41:55;13.18;;;11.98;;
24008;SDS011;12217;50.792;4.372;2023-03-01T15:44:27;13.38;;;11.98;;
24008;SDS011;12217;50.792;4.372;2023-03-01T15:46:55;12.57;;;11.27;;
24008;SDS011;12217;50.792;4.372;2023-03-01T15:52:11;12.85;;;10.88;;
24008;SDS011;12217;50.792;4.372;2023-03-01T15:55:02;12.25;;;11.00;;
24008;SDS011;12217;50.792;4.372;2023-03-01T15:57:31;11.15;;;9.95;;
24008;SDS011;12217;50.792;4.372;2023-03-01T15:59:57;12.45;;;9.88;;
24008;SDS011;12217;50.792;4.372;2023-03-01T16:02:23;11.02;;;9.93;;
24008;SDS011;12217;50.792;4.372;2023-03-01T16:04:49;11.05;;;9.95;;
24008;SDS011;12217;50.792;4.372;2023-03-01T16:07:15;11.02;;;9.48;;
24008;SDS011;12217;50.792;4.372;2023-03-01T16:09:41;11.88;;;10.15;;
24008;SDS011;12217;50.792;4.372;2023-03-01T16:12:12;10.50;;;9.40;;
24008;SDS011;12217;50.792;4.372;2023-03-01T16:14:39;10.75;;;9.13;;
24008;SDS011;12217;50.792;4.372;2023-03-01T16:17:05;10.90;;;9.90;;
24008;SDS011;12217;50.792;4.372;2023-03-01T16:19:30;10.68;;;9.60;;
24008;SDS011;12217;50.792;4.372;2023-03-01T16:21:56;10.77;;;9.75;;
24008;SDS011;12217;50.792;4.372;2023-03-01T16:24:21;13.18;;;10.45;;
24008;SDS011;12217;50.792;4.372;2023-03-01T16:26:47;10.43;;;9.38;;
24008;SDS011;12217;50.792;4.372;2023-03-01T16:29:13;11.55;;;10.45;;
24008;SDS011;12217;50.792;4.372;2023-03-01T16:31:39;12.55;;;10.18;;
24008;SDS011;12217;50.792;4.372;2023-03-01T16:34:05;12.27;;;10.00;;
24008;SDS011;12217;50.792;4.372;2023-03-01T16:36:30;12.35;;;9.50;;
24008;SDS011;12217;50.792;4.372;2023-03-01T16:38:57;11.52;;;9.63;;